Time;durP1;ratioP1;P1;durP2;ratioP2;P2;SDS_P1;SDS_P2;PMS_P1;PMS_P2;Temp;Humidity;BMP_temperature;BMP_pressure;BME280_temperature;BME280_humidity;BME280_pressure;Samples;Min_cycle;Max_cycle;Signal;HPM_P1;HPM_P2
2023/06/30 00:00:34;;;;;;;17.10;6.80;;;11.40;99.90;;;;;;5134970;28;20442;-23
2023/06/30 00:02:59;;;;;;;16.58;7.30;;;11.30;99.90;;;;;;5134392;28;20043;-23
2023/06/30 00:05:25;;;;;;;12.98;6.50;;;11.20;99.90;;;;;;5134333;28;20099;-23
2023/06/30 00:07:54;;;;;;;11.25;6.50;;;11.00;99.90;;;;;;5134363;28;20039;-23
2023/06/30 00:10:22;;;;;;;11.80;5.85;;;10.90;99.90;;;;;;5099192;28;20465;-23
2023/06/30 00:12:48;;;;;;;18.25;7.38;;;10.80;99.90;;;;;;5116032;28;20099;-23
2023/06/30 00:15:14;;;;;;;25.40;7.57;;;10.80;99.90;;;;;;5116333;28;20122;-23
2023/06/30 00:17:39;;;;;;;20.20;7.40;;;10.80;99.90;;;;;;5135994;27;20124;-23
2023/06/30 00:20:06;;;;;;;15.50;6.72;;;10.70;99.90;;;;;;5120254;27;20050;-23
2023/06/30 00:22:35;;;;;;;17.90;7.30;;;10.70;99.90;;;;;;5137879;27;20385;-23
2023/06/30 00:25:02;;;;;;;14.82;6.95;;;10.70;99.90;;;;;;5138172;27;20043;-23
2023/06/30 00:27:27;;;;;;;21.52;7.80;;;10.60;99.90;;;;;;5138089;27;20130;-23
2023/06/30 00:29:53;;;;;;;16.20;8.52;;;10.60;99.90;;;;;;5138825;27;20441;-23
2023/06/30 00:32:20;;;;;;;17.17;6.53;;;10.60;99.90;;;;;;5137919;27;20043;-22
2023/06/30 00:34:46;;;;;;;15.23;7.55;;;10.70;99.90;;;;;;5137961;27;20126;-23
2023/06/30 00:37:12;;;;;;;20.85;7.97;;;10.80;99.90;;;;;;5137886;27;20061;-22
2023/06/30 00:39:37;;;;;;;13.43;7.40;;;10.80;99.90;;;;;;5137827;27;20043;-23
2023/06/30 00:42:04;;;;;;;14.98;7.65;;;10.80;99.90;;;;;;5138605;27;20042;-23
2023/06/30 00:44:29;;;;;;;12.98;7.00;;;10.80;99.90;;;;;;5102751;27;20380;-24
2023/06/30 00:46:59;;;;;;;12.73;7.40;;;10.80;99.90;;;;;;5085779;27;20050;-23
2023/06/30 00:49:25;;;;;;;17.52;6.82;;;10.80;99.90;;;;;;5137679;27;20047;-23
2023/06/30 00:51:51;;;;;;;16.52;6.82;;;10.60;99.90;;;;;;5137484;27;20050;-23
2023/06/30 00:54:16;;;;;;;10.55;6.50;;;10.70;99.90;;;;;;5137559;27;20124;-23
2023/06/30 00:56:42;;;;;;;15.90;6.75;;;10.60;99.90;;;;;;5138079;27;20130;-23
2023/06/30 00:59:09;;;;;;;12.43;6.85;;;10.60;99.90;;;;;;5119614;27;20047;-23
2023/06/30 01:02:00;;;;;;;15.55;7.78;;;10.60;99.90;;;;;;5119176;27;20116;-23
2023/06/30 01:04:42;;;;;;;19.83;6.53;;;10.60;99.90;;;;;;5091977;27;20404;-23
2023/06/30 01:07:28;;;;;;;16.55;7.20;;;10.50;99.90;;;;;;5119078;27;20043;-23
2023/06/30 01:10:15;;;;;;;18.67;7.57;;;10.50;99.90;;;;;;5119242;27;20512;-22
2023/06/30 01:12:42;;;;;;;15.20;6.53;;;10.50;99.90;;;;;;5137113;27;20047;-22
2023/06/30 01:15:09;;;;;;;14.77;6.60;;;10.50;99.90;;;;;;5137173;27;20400;-22
2023/06/30 01:17:41;;;;;;;16.02;8.20;;;10.50;99.90;;;;;;5137395;27;20070;-22
2023/06/30 01:20:10;;;;;;;16.27;6.75;;;10.50;99.90;;;;;;5137957;27;20088;-22
2023/06/30 01:22:42;;;;;;;17.02;7.20;;;10.50;99.90;;;;;;5137579;27;20064;-22
2023/06/30 01:25:19;;;;;;;18.85;7.20;;;10.50;99.90;;;;;;5137620;27;20050;-22
2023/06/30 01:27:45;;;;;;;15.38;7.95;;;10.50;99.90;;;;;;5118421;27;20096;-22
2023/06/30 01:30:13;;;;;;;16.58;7.18;;;10.50;99.90;;;;;;5136747;27;20485;-22
2023/06/30 01:32:40;;;;;;;19.05;7.50;;;10.60;99.90;;;;;;5137364;27;20047;-22
2023/06/30 01:35:06;;;;;;;14.63;6.82;;;10.50;99.90;;;;;;5136800;27;20120;-22
2023/06/30 01:37:31;;;;;;;21.70;7.90;;;10.50;99.90;;;;;;5136713;27;20043;-22
2023/06/30 01:39:59;;;;;;;19.48;7.57;;;10.40;99.90;;;;;;5101534;27;20043;-22
2023/06/30 01:42:26;;;;;;;16.65;6.93;;;10.30;99.90;;;;;;5136623;27;20528;-22
2023/06/30 01:44:52;;;;;;;16.40;7.65;;;10.20;99.90;;;;;;5136578;27;20046;-22
2023/06/30 01:47:18;;;;;;;18.60;7.07;;;10.20;99.90;;;;;;5118473;27;20051;-23
2023/06/30 01:49:45;;;;;;;15.20;6.20;;;10.10;99.90;;;;;;5137035;27;20439;-22
2023/06/30 01:52:10;;;;;;;14.90;6.30;;;9.90;99.90;;;;;;5136440;27;20050;-22
2023/06/30 01:54:36;;;;;;;17.30;6.93;;;9.80;99.90;;;;;;5101664;27;20443;-22
2023/06/30 01:57:02;;;;;;;20.85;7.10;;;9.70;99.90;;;;;;5136023;27;20047;-22
2023/06/30 01:59:28;;;;;;;12.68;6.97;;;9.70;99.90;;;;;;5117674;27;20062;-23
2023/06/30 02:01:53;;;;;;;20.48;8.40;;;9.60;99.90;;;;;;5136776;27;20054;-23
2023/06/30 02:04:19;;;;;;;14.85;6.38;;;9.60;99.90;;;;;;5136217;27;20043;-23
2023/06/30 02:06:45;;;;;;;19.65;7.88;;;9.60;99.90;;;;;;5117740;27;20055;-22
2023/06/30 02:09:14;;;;;;;16.60;7.35;;;9.50;99.90;;;;;;5136343;27;20057;-22
2023/06/30 02:11:40;;;;;;;19.00;8.07;;;9.40;99.90;;;;;;5136539;27;20039;-22
2023/06/30 02:14:05;;;;;;;17.15;7.00;;;9.30;99.90;;;;;;5118342;27;20491;-22
2023/06/30 02:16:31;;;;;;;13.40;6.78;;;9.30;99.90;;;;;;5136772;27;20131;-22
2023/06/30 02:18:57;;;;;;;12.07;7.00;;;9.40;99.90;;;;;;5135603;27;20053;-22
2023/06/30 02:21:24;;;;;;;16.33;6.80;;;9.30;99.90;;;;;;5117473;27;20133;-23
2023/06/30 02:23:49;;;;;;;18.80;8.02;;;9.30;99.90;;;;;;5135904;27;20365;-22
2023/06/30 02:26:15;;;;;;;17.95;7.55;;;9.20;99.90;;;;;;5101202;27;20054;-22
2023/06/30 02:28:41;;;;;;;15.73;7.78;;;9.20;99.90;;;;;;5135380;27;20507;-22
2023/06/30 02:31:07;;;;;;;14.80;7.82;;;9.20;99.90;;;;;;5135543;27;20089;-22
2023/06/30 02:33:32;;;;;;;17.08;8.95;;;9.30;99.90;;;;;;5136351;27;20131;-22
2023/06/30 02:35:58;;;;;;;17.60;8.70;;;9.50;99.90;;;;;;5136430;27;20047;-22
2023/06/30 02:38:24;;;;;;;13.02;8.50;;;9.50;99.90;;;;;;5100195;27;20047;-22
2023/06/30 02:40:49;;;;;;;22.30;8.80;;;9.60;99.90;;;;;;5134826;27;20065;-22
2023/06/30 02:43:15;;;;;;;21.85;8.88;;;9.50;99.90;;;;;;5135447;27;20378;-23
2023/06/30 02:45:41;;;;;;;19.67;8.80;;;9.50;99.90;;;;;;5135419;27;20051;-22
2023/06/30 02:48:07;;;;;;;23.65;8.95;;;9.50;99.90;;;;;;5135358;27;20047;-22
2023/06/30 02:50:32;;;;;;;19.30;8.73;;;9.50;99.90;;;;;;5135287;27;20054;-22
2023/06/30 02:52:59;;;;;;;22.17;10.32;;;9.50;99.90;;;;;;5117156;27;20035;-22
2023/06/30 02:55:25;;;;;;;17.25;9.18;;;9.60;99.90;;;;;;5135211;27;20074;-22
2023/06/30 02:57:51;;;;;;;19.92;9.10;;;9.40;99.90;;;;;;5135174;27;20079;-22
2023/06/30 03:00:17;;;;;;;17.90;8.80;;;9.30;99.90;;;;;;5116640;27;20055;-22
2023/06/30 03:02:43;;;;;;;21.48;8.55;;;9.30;99.90;;;;;;5135126;27;20373;-22
2023/06/30 03:05:09;;;;;;;21.25;9.00;;;9.20;99.90;;;;;;5117035;27;20035;-22
2023/06/30 03:07:35;;;;;;;19.98;8.90;;;9.30;99.90;;;;;;5135327;27;20143;-22
2023/06/30 03:10:01;;;;;;;16.40;8.02;;;9.40;99.90;;;;;;5135308;27;20050;-22
2023/06/30 03:12:27;;;;;;;16.25;9.20;;;9.40;99.90;;;;;;5134878;27;20153;-22
2023/06/30 03:14:53;;;;;;;20.83;9.15;;;9.60;99.90;;;;;;5134907;27;20121;-23
2023/06/30 03:17:19;;;;;;;18.98;9.13;;;9.60;99.90;;;;;;5135468;27;20396;-23
2023/06/30 03:19:45;;;;;;;19.48;9.55;;;9.60;99.90;;;;;;5134830;27;20047;-22
2023/06/30 03:22:10;;;;;;;19.63;9.45;;;9.60;99.90;;;;;;5116578;28;20126;-22
2023/06/30 03:24:36;;;;;;;19.48;9.10;;;9.50;99.90;;;;;;5117234;27;20135;-22
2023/06/30 03:27:02;;;;;;;20.40;9.40;;;9.60;99.90;;;;;;5134765;27;20080;-23
2023/06/30 03:29:28;;;;;;;18.15;9.18;;;9.60;99.90;;;;;;5116444;27;20480;-22
2023/06/30 03:31:54;;;;;;;18.08;8.90;;;9.70;99.90;;;;;;5134900;27;20051;-22
2023/06/30 03:34:20;;;;;;;16.95;9.30;;;9.70;99.90;;;;;;5134634;27;20066;-22
2023/06/30 03:36:45;;;;;;;19.77;10.27;;;9.80;99.90;;;;;;5134642;28;20043;-23
2023/06/30 03:39:11;;;;;;;18.30;9.95;;;10.00;99.90;;;;;;5117201;28;20066;-23
2023/06/30 03:41:37;;;;;;;17.35;9.70;;;10.10;99.90;;;;;;5134672;28;20400;-22
2023/06/30 03:44:03;;;;;;;19.60;10.40;;;10.10;99.90;;;;;;5134568;28;20047;-22
2023/06/30 03:46:28;;;;;;;22.52;10.20;;;10.10;99.90;;;;;;5134232;28;20039;-22
2023/06/30 03:48:54;;;;;;;18.65;9.52;;;10.10;99.90;;;;;;5135070;28;20043;-23
2023/06/30 03:51:20;;;;;;;26.23;10.75;;;10.20;99.90;;;;;;5135814;27;20365;-22
2023/06/30 03:53:46;;;;;;;19.92;9.32;;;10.20;99.90;;;;;;5138660;27;20070;-22
2023/06/30 03:56:12;;;;;;;16.70;9.50;;;10.10;99.90;;;;;;5120503;27;20485;-23
2023/06/30 03:58:38;;;;;;;17.17;9.90;;;10.10;99.90;;;;;;5138636;27;20497;-23
2023/06/30 04:01:04;;;;;;;21.50;9.82;;;10.20;99.90;;;;;;5138383;27;20057;-22
2023/06/30 04:03:30;;;;;;;22.63;10.05;;;10.20;99.90;;;;;;5138599;27;20047;-22
2023/06/30 04:05:56;;;;;;;25.60;11.15;;;10.30;99.90;;;;;;5120413;27;20473;-23
2023/06/30 04:08:22;;;;;;;26.50;10.13;;;10.20;99.90;;;;;;5138719;27;20054;-23
2023/06/30 04:10:48;;;;;;;20.70;10.18;;;10.10;99.90;;;;;;5120356;27;20047;-23
2023/06/30 04:13:13;;;;;;;24.08;10.10;;;10.10;99.90;;;;;;5138910;27;20126;-23
2023/06/30 04:15:39;;;;;;;19.00;8.82;;;10.20;99.90;;;;;;5120288;27;20047;-22
2023/06/30 04:18:05;;;;;;;25.40;10.32;;;10.10;99.90;;;;;;5138829;27;20594;-22
2023/06/30 04:20:31;;;;;;;18.42;8.80;;;10.00;99.90;;;;;;5138196;27;20039;-23
2023/06/30 04:22:56;;;;;;;17.25;8.93;;;10.10;99.90;;;;;;5120205;27;20126;-23
2023/06/30 04:25:22;;;;;;;19.08;9.80;;;10.30;99.90;;;;;;5138137;27;20173;-23
2023/06/30 04:27:48;;;;;;;16.88;9.18;;;10.40;99.90;;;;;;5119707;27;20047;-23
2023/06/30 04:30:14;;;;;;;18.33;8.65;;;10.50;99.90;;;;;;5137952;27;20047;-23
2023/06/30 04:32:39;;;;;;;18.10;9.93;;;10.60;99.90;;;;;;5138233;27;20046;-23
2023/06/30 04:35:05;;;;;;;18.55;10.40;;;10.70;99.90;;;;;;5138530;27;20493;-23
2023/06/30 04:37:31;;;;;;;16.95;9.32;;;10.70;99.90;;;;;;5119582;27;20043;-23
2023/06/30 04:39:58;;;;;;;19.08;9.05;;;10.90;99.90;;;;;;5138101;27;20126;-23
2023/06/30 04:42:27;;;;;;;25.70;9.98;;;10.80;99.90;;;;;;5137828;27;20039;-23
2023/06/30 04:44:52;;;;;;;17.83;8.50;;;11.10;99.90;;;;;;5137850;27;20126;-23
2023/06/30 04:47:18;;;;;;;16.42;9.30;;;11.40;99.90;;;;;;5138255;27;20077;-23
2023/06/30 04:49:44;;;;;;;21.27;10.30;;;11.50;99.90;;;;;;5137663;27;20472;-23
2023/06/30 04:52:11;;;;;;;14.45;8.52;;;11.90;99.90;;;;;;5119708;27;20043;-23
2023/06/30 04:54:36;;;;;;;18.15;9.68;;;12.20;99.90;;;;;;5137878;27;20099;-22
2023/06/30 04:57:02;;;;;;;19.58;9.05;;;12.30;99.90;;;;;;5137567;27;20430;-23
2023/06/30 04:59:28;;;;;;;16.02;8.43;;;12.30;99.90;;;;;;5137171;27;20059;-23
2023/06/30 05:01:53;;;;;;;19.85;8.80;;;12.50;99.90;;;;;;5119183;27;20047;-23
2023/06/30 05:04:19;;;;;;;17.67;8.20;;;12.70;99.90;;;;;;5136665;27;20064;-23
2023/06/30 05:06:45;;;;;;;19.52;8.57;;;12.80;99.90;;;;;;5101995;27;20043;-23
2023/06/30 05:09:11;;;;;;;16.35;8.75;;;13.10;99.90;;;;;;5137133;27;20047;-23
2023/06/30 05:11:36;;;;;;;16.45;7.85;;;13.30;99.90;;;;;;5119126;27;20086;-23
2023/06/30 05:14:02;;;;;;;9.50;6.72;;;13.50;99.90;;;;;;5137226;27;20079;-23
2023/06/30 05:16:28;;;;;;;18.15;7.65;;;13.50;99.90;;;;;;5137255;27;20506;-23
2023/06/30 05:18:53;;;;;;;20.35;6.35;;;13.60;99.90;;;;;;5137129;27;20389;-23
2023/06/30 05:21:19;;;;;;;12.88;6.15;;;13.70;99.90;;;;;;5102292;27;20043;-23
2023/06/30 05:23:45;;;;;;;11.63;5.18;;;13.80;99.90;;;;;;5137104;27;20380;-23
2023/06/30 05:26:11;;;;;;;12.93;5.80;;;13.80;99.90;;;;;;5118537;27;20047;-23
2023/06/30 05:28:36;;;;;;;9.25;4.93;;;13.90;99.90;;;;;;5119487;27;20039;-23
2023/06/30 05:31:03;;;;;;;8.95;5.32;;;13.80;99.90;;;;;;5136860;27;20039;-23
2023/06/30 05:33:29;;;;;;;11.50;5.25;;;13.80;99.90;;;;;;5136791;27;20082;-23
2023/06/30 05:35:55;;;;;;;13.38;5.50;;;13.70;99.90;;;;;;5118448;27;20100;-23
2023/06/30 05:38:20;;;;;;;10.90;4.65;;;14.20;99.90;;;;;;5137263;27;20051;-23
2023/06/30 05:40:46;;;;;;;13.60;5.10;;;15.00;99.90;;;;;;5136848;27;20043;-23
2023/06/30 05:43:12;;;;;;;22.52;6.97;;;15.70;99.90;;;;;;5118933;27;20079;-23
2023/06/30 05:45:39;;;;;;;11.25;4.78;;;16.20;99.90;;;;;;5136689;27;20163;-23
2023/06/30 05:48:05;;;;;;;14.02;4.90;;;16.50;99.90;;;;;;5118492;27;20047;-23
2023/06/30 05:50:31;;;;;;;12.00;5.00;;;16.90;99.90;;;;;;5136753;27;20051;-23
2023/06/30 05:52:56;;;;;;;9.00;3.80;;;17.10;99.90;;;;;;5118169;27;20036;-23
2023/06/30 05:55:22;;;;;;;10.05;3.45;;;17.20;99.90;;;;;;5136431;27;20067;-23
2023/06/30 05:57:48;;;;;;;10.52;3.13;;;17.30;99.90;;;;;;5136690;27;20062;-23
2023/06/30 06:00:14;;;;;;;7.72;2.60;;;17.40;99.90;;;;;;5136584;27;20378;-23
2023/06/30 06:02:40;;;;;;;8.13;2.83;;;17.40;99.90;;;;;;5136282;27;20043;-23
2023/06/30 06:05:06;;;;;;;8.00;2.88;;;17.60;99.90;;;;;;5136792;27;20043;-23
2023/06/30 06:07:32;;;;;;;6.18;2.45;;;18.00;99.90;;;;;;5118519;27;20043;-23
2023/06/30 06:09:58;;;;;;;4.28;2.40;;;18.00;99.90;;;;;;5136124;27;20129;-23
2023/06/30 06:12:24;;;;;;;5.20;1.92;;;18.30;99.90;;;;;;5136007;27;20172;-24
2023/06/30 06:14:50;;;;;;;6.82;1.85;;;18.30;99.90;;;;;;5135659;27;20044;-23
2023/06/30 06:17:15;;;;;;;8.45;1.80;;;18.40;1.00;;;;;;5100784;27;20047;-23
2023/06/30 06:19:41;;;;;;;4.90;1.80;;;18.40;99.90;;;;;;5136743;27;20373;-23
2023/06/30 06:22:07;;;;;;;5.13;1.40;;;18.30;99.90;;;;;;5135879;27;20045;-23
2023/06/30 06:24:32;;;;;;;5.80;2.65;;;17.90;1.00;;;;;;5136653;27;20039;-23
2023/06/30 06:26:58;;;;;;;4.28;1.08;;;18.20;7.30;;;;;;5135748;27;20595;-23
2023/06/30 06:29:24;;;;;;;10.23;1.70;;;18.30;1.00;;;;;;5135617;27;20047;-23
2023/06/30 06:31:53;;;;;;;4.78;1.50;;;18.30;7.70;;;;;;5135649;27;20126;-23
2023/06/30 06:34:19;;;;;;;3.97;1.17;;;18.60;1.00;;;;;;5136479;27;20043;-23
2023/06/30 06:36:45;;;;;;;8.00;2.15;;;18.80;99.90;;;;;;5135580;27;20438;-23
2023/06/30 06:39:12;;;;;;;6.15;1.50;;;18.70;99.90;;;;;;5136174;27;20043;-24
2023/06/30 06:41:38;;;;;;;9.25;2.42;;;19.10;1.00;;;;;;5117242;27;20043;-23
2023/06/30 06:44:04;;;;;;;7.55;1.80;;;18.90;1.00;;;;;;5135471;27;20050;-23
2023/06/30 06:46:30;;;;;;;5.25;1.33;;;18.70;99.90;;;;;;5117609;27;20050;-23
2023/06/30 06:48:56;;;;;;;6.47;1.50;;;18.30;1.00;;;;;;5083378;27;20047;-23
2023/06/30 06:51:22;;;;;;;9.35;2.30;;;18.10;99.90;;;;;;5135854;27;20043;-23
2023/06/30 06:53:48;;;;;;;7.15;1.58;;;18.20;31.50;;;;;;5135204;27;20043;-23
2023/06/30 06:56:14;;;;;;;3.83;1.23;;;17.80;1.00;;;;;;5135579;27;20043;-23
2023/06/30 06:58:40;;;;;;;2.75;1.10;;;17.50;99.90;;;;;;5135211;27;20050;-23
2023/06/30 07:01:05;;;;;;;4.60;1.45;;;17.20;99.90;;;;;;5135810;27;20087;-23
2023/06/30 07:03:31;;;;;;;4.60;0.82;;;17.30;1.00;;;;;;5135110;27;20074;-23
2023/06/30 07:05:58;;;;;;;5.53;1.20;;;17.60;99.90;;;;;;5135364;27;20051;-23
2023/06/30 07:08:24;;;;;;;3.67;1.40;;;17.90;99.90;;;;;;5135339;27;20043;-23
2023/06/30 07:10:51;;;;;;;6.38;1.45;;;18.00;99.90;;;;;;5134967;27;20469;-23
2023/06/30 07:13:18;;;;;;;17.70;2.92;;;17.90;1.00;;;;;;5116687;27;20126;-23
2023/06/30 07:15:45;;;;;;;3.75;1.00;;;18.40;99.90;;;;;;5117416;27;20075;-23
2023/06/30 07:18:11;;;;;;;5.47;1.40;;;18.90;1.00;;;;;;5134919;27;20043;-23
2023/06/30 07:20:37;;;;;;;6.82;1.85;;;19.50;1.00;;;;;;5117639;27;20130;-23
2023/06/30 07:23:03;;;;;;;6.55;1.50;;;19.90;99.90;;;;;;5134852;27;20118;-23
2023/06/30 07:25:29;;;;;;;8.15;1.52;;;20.30;1.00;;;;;;5116493;27;20050;-23
2023/06/30 07:27:57;;;;;;;8.38;1.23;;;19.50;16.50;;;;;;5116591;27;20091;-24
2023/06/30 07:30:27;;;;;;;7.85;0.90;;;18.60;1.00;;;;;;5134748;27;20548;-23
2023/06/30 07:32:53;;;;;;;3.85;1.13;;;17.60;99.90;;;;;;5134555;27;20084;-23
2023/06/30 07:35:20;;;;;;;3.45;1.02;;;17.20;99.90;;;;;;5134586;27;20043;-23
2023/06/30 07:37:46;;;;;;;5.65;1.13;;;16.90;99.90;;;;;;5099459;28;20484;-23
2023/06/30 07:40:13;;;;;;;4.57;0.80;;;16.90;1.00;;;;;;5134200;28;20489;-23
2023/06/30 07:42:39;;;;;;;5.70;0.90;;;17.80;99.90;;;;;;5116528;28;20088;-23
2023/06/30 07:45:14;;;;;;;6.70;1.13;;;18.50;1.00;;;;;;5134589;28;20047;-23
2023/06/30 07:47:41;;;;;;;8.35;1.30;;;19.10;99.90;;;;;;5134655;28;20051;-23
2023/06/30 07:50:14;;;;;;;9.63;1.60;;;19.60;53.60;;;;;;5134465;28;20093;-23
2023/06/30 07:52:44;;;;;;;;;;;19.90;1.00;;;;;;5134845;28;20469;-23
2023/06/30 07:55:15;;;;;;;6.70;1.75;;;19.90;1.00;;;;;;5116175;28;19919;-24
2023/06/30 07:57:42;;;;;;;5.30;0.93;;;20.10;99.90;;;;;;5135366;28;20049;-23
2023/06/30 08:00:10;;;;;;;6.03;1.17;;;19.70;1.00;;;;;;5134122;28;20073;-23
2023/06/30 08:02:37;;;;;;;4.47;1.88;;;20.20;26.20;;;;;;5134680;28;20126;-23
2023/06/30 08:05:03;;;;;;;4.63;1.40;;;20.30;99.90;;;;;;5134433;28;20054;-23
2023/06/30 08:07:29;;;;;;;2.88;0.68;;;21.10;99.90;;;;;;5134305;28;20422;-23
2023/06/30 08:09:55;;;;;;;4.35;0.80;;;21.30;99.90;;;;;;5134662;28;20054;-23
2023/06/30 08:12:20;;;;;;;6.75;1.23;;;20.50;99.90;;;;;;5134269;28;20043;-23
2023/06/30 08:14:48;;;;;;;3.28;0.77;;;19.80;1.00;;;;;;5134275;28;20050;-23
2023/06/30 08:17:15;;;;;;;3.67;1.33;;;20.00;1.00;;;;;;5134318;28;20054;-23
2023/06/30 08:19:41;;;;;;;3.58;0.88;;;19.50;99.90;;;;;;5100059;28;20047;-24
2023/06/30 08:22:09;;;;;;;3.40;0.85;;;18.50;1.00;;;;;;5134282;28;20052;-24
2023/06/30 08:24:34;;;;;;;7.55;1.25;;;17.90;99.90;;;;;;5134253;28;20073;-23
2023/06/30 08:27:00;;;;;;;5.00;0.90;;;17.60;1.00;;;;;;5134179;28;20499;-23
2023/06/30 08:29:26;;;;;;;5.07;1.23;;;18.60;1.00;;;;;;5134831;28;20061;-24
2023/06/30 08:31:52;;;;;;;8.02;1.38;;;19.80;15.10;;;;;;5098849;28;20053;-23
2023/06/30 08:34:18;;;;;;;3.22;0.70;;;20.70;1.00;;;;;;5134112;28;20047;-23
2023/06/30 08:36:44;;;;;;;3.70;0.60;;;20.10;61.10;;;;;;5134308;28;20054;-23
2023/06/30 08:39:11;;;;;;;5.45;1.02;;;19.10;99.90;;;;;;5136511;27;20051;-23
2023/06/30 08:41:38;;;;;;;2.95;0.70;;;18.70;1.00;;;;;;5137905;27;20082;-23
2023/06/30 08:44:05;;;;;;;2.03;0.88;;;18.40;1.00;;;;;;5120000;27;20101;-23
2023/06/30 08:46:31;;;;;;;4.45;1.40;;;18.20;99.90;;;;;;5137833;27;20118;-24
2023/06/30 08:48:57;;;;;;;8.77;1.10;;;19.20;99.90;;;;;;5137709;27;20047;-23
2023/06/30 08:51:23;;;;;;;4.32;0.98;;;19.70;99.90;;;;;;5119338;27;20046;-23
2023/06/30 08:53:51;;;;;;;4.18;0.98;;;20.20;22.80;;;;;;5119484;27;20043;-23
2023/06/30 08:56:17;;;;;;;6.10;0.82;;;21.00;99.90;;;;;;5120107;27;20471;-23
2023/06/30 08:58:43;;;;;;;3.90;0.85;;;20.80;99.90;;;;;;5120286;27;20051;-24
2023/06/30 09:01:12;;;;;;;6.50;0.82;;;21.30;99.90;;;;;;5138251;27;20456;-23
2023/06/30 09:03:38;;;;;;;2.47;0.70;;;21.60;99.90;;;;;;5137476;27;20172;-23
2023/06/30 09:06:04;;;;;;;2.80;0.70;;;21.00;1.00;;;;;;5119612;27;20050;-24
2023/06/30 09:08:47;;;;;;;3.72;0.77;;;19.90;1.00;;;;;;5137331;27;20058;-24
2023/06/30 09:11:16;;;;;;;5.10;0.95;;;19.90;99.90;;;;;;5138194;27;20047;-24
2023/06/30 09:13:44;;;;;;;4.07;0.75;;;20.50;99.90;;;;;;5137168;27;20080;-24
2023/06/30 09:16:15;;;;;;;5.85;1.10;;;21.10;99.90;;;;;;5137747;27;20047;-24
2023/06/30 09:18:42;;;;;;;3.50;1.10;;;21.50;1.00;;;;;;5137485;27;20050;-23
2023/06/30 09:21:08;;;;;;;3.55;0.70;;;21.90;1.00;;;;;;5137095;27;20046;-24
2023/06/30 09:23:34;;;;;;;4.32;1.10;;;21.60;99.90;;;;;;5119407;27;20046;-24
2023/06/30 09:26:00;;;;;;;3.28;0.88;;;20.20;1.00;;;;;;5101967;27;20130;-24
2023/06/30 09:28:35;;;;;;;4.25;1.00;;;19.80;99.90;;;;;;5137289;27;20058;-23
2023/06/30 09:31:02;;;;;;;5.90;0.75;;;20.70;1.00;;;;;;5085138;27;20449;-24
2023/06/30 09:33:28;;;;;;;2.05;0.50;;;21.20;1.00;;;;;;5118671;27;20070;-24
2023/06/30 09:35:56;;;;;;;4.78;0.80;;;21.20;99.90;;;;;;5136904;27;20128;-24
2023/06/30 09:38:21;;;;;;;4.47;0.50;;;21.20;99.90;;;;;;5137401;27;20055;-24
2023/06/30 09:40:49;;;;;;;3.55;1.17;;;21.60;99.90;;;;;;5136764;27;20495;-24
2023/06/30 09:43:20;;;;;;;2.80;1.15;;;22.00;99.90;;;;;;5118892;27;20053;-24
2023/06/30 09:45:57;;;;;;;3.63;1.20;;;22.10;99.90;;;;;;5136299;27;20492;-24
2023/06/30 09:48:38;;;;;;;10.57;1.00;;;21.20;99.90;;;;;;5136687;27;20039;-24
2023/06/30 09:51:04;;;;;;;3.53;1.00;;;20.30;99.90;;;;;;5136604;27;20054;-24
2023/06/30 09:53:41;;;;;;;4.88;1.10;;;19.40;1.00;;;;;;5137052;27;20040;-24
2023/06/30 09:56:08;;;;;;;3.63;1.38;;;19.40;99.90;;;;;;5136753;27;20042;-24
2023/06/30 09:58:35;;;;;;;4.40;1.00;;;20.40;1.00;;;;;;5118157;27;20369;-24
2023/06/30 10:01:01;;;;;;;2.67;0.50;;;21.30;99.90;;;;;;5117526;27;20134;-24
2023/06/30 10:03:27;;;;;;;2.67;0.77;;;21.70;99.90;;;;;;5136298;27;20081;-24
2023/06/30 10:05:53;;;;;;;4.22;0.73;;;21.90;99.90;;;;;;5118140;27;20477;-24
2023/06/30 10:08:22;;;;;;;4.32;0.70;;;22.00;99.90;;;;;;5136194;27;20071;-24
2023/06/30 10:10:51;;;;;;;4.55;0.85;;;22.10;19.70;;;;;;5136133;27;20591;-25
2023/06/30 10:13:18;;;;;;;5.25;0.95;;;21.50;1.00;;;;;;5136039;27;20039;-24
2023/06/30 10:15:44;;;;;;;3.80;1.00;;;20.70;31.20;;;;;;5136050;27;20038;-25
2023/06/30 10:18:14;;;;;;;1.77;0.73;;;20.10;99.90;;;;;;5117913;27;20061;-24
2023/06/30 10:20:41;;;;;;;3.25;1.05;;;19.80;99.90;;;;;;5135938;27;20561;-24
2023/06/30 10:23:07;;;;;;;5.75;1.35;;;20.50;1.00;;;;;;5135903;27;20382;-24
2023/06/30 10:25:37;;;;;;;2.47;0.80;;;20.80;99.90;;;;;;5135913;27;20043;-24
2023/06/30 10:28:04;;;;;;;3.58;0.90;;;20.80;99.90;;;;;;5136120;27;20082;-24
2023/06/30 10:30:30;;;;;;;4.85;1.05;;;21.20;99.90;;;;;;5135966;27;20057;-24
2023/06/30 10:32:56;;;;;;;3.75;1.25;;;21.80;99.90;;;;;;5135951;27;20096;-24
2023/06/30 10:35:22;;;;;;;3.03;1.00;;;22.30;99.90;;;;;;5136199;27;20054;-25
2023/06/30 10:37:48;;;;;;;3.92;1.17;;;22.50;99.90;;;;;;5135855;27;20047;-25
2023/06/30 10:40:27;;;;;;;2.95;0.95;;;22.40;99.90;;;;;;5117851;27;20047;-25
2023/06/30 10:42:55;;;;;;;4.18;1.10;;;21.60;15.10;;;;;;5117920;27;20047;-25
2023/06/30 10:45:28;;;;;;;7.20;1.45;;;20.60;66.90;;;;;;5100641;27;20055;-24
2023/06/30 10:47:54;;;;;;;4.18;1.00;;;20.20;99.90;;;;;;5136113;27;20091;-24
2023/06/30 10:50:19;;;;;;;6.65;1.10;;;20.20;99.90;;;;;;5135944;27;20481;-25
2023/06/30 10:52:52;;;;;;;2.90;0.90;;;20.90;99.90;;;;;;5100069;27;20397;-25
2023/06/30 10:55:25;;;;;;;3.63;1.15;;;21.90;99.90;;;;;;5135535;27;20494;-24
2023/06/30 10:57:53;;;;;;;3.63;1.33;;;22.60;56.40;;;;;;5135499;27;20468;-25
2023/06/30 11:00:21;;;;;;;4.72;1.80;;;22.60;49.00;;;;;;5134642;27;20159;-25
2023/06/30 11:02:49;;;;;;;2.78;1.05;;;22.70;6.50;;;;;;5135168;27;20111;-25
2023/06/30 11:05:28;;;;;;;3.70;1.00;;;22.70;13.20;;;;;;5117860;27;20051;-25
2023/06/30 11:08:07;;;;;;;5.65;1.13;;;22.50;1.00;;;;;;5135073;27;20054;-24
2023/06/30 11:10:32;;;;;;;3.50;0.95;;;21.70;1.00;;;;;;5135109;27;20055;-25
2023/06/30 11:13:10;;;;;;;4.63;1.02;;;20.90;1.00;;;;;;5134861;27;20050;-25
2023/06/30 11:15:43;;;;;;;3.03;1.20;;;20.60;63.70;;;;;;5135101;27;20144;-24
2023/06/30 11:18:20;;;;;;;4.88;1.27;;;20.40;39.80;;;;;;5135520;27;20047;-25
2023/06/30 11:21:05;;;;;;;5.70;0.95;;;20.50;19.00;;;;;;5135773;27;20112;-25
2023/06/30 11:23:37;;;;;;;5.32;0.60;;;21.50;1.00;;;;;;5134919;27;20160;-25
2023/06/30 11:26:17;;;;;;;3.40;0.90;;;22.20;1.00;;;;;;5116584;27;20047;-24
2023/06/30 11:28:50;;;;;;;8.35;2.22;;;22.70;1.00;;;;;;5135447;27;20046;-25
2023/06/30 11:31:17;;;;;;;2.28;1.00;;;23.30;1.00;;;;;;5134766;27;20051;-24
2023/06/30 11:33:44;;;;;;;3.67;0.80;;;23.30;1.00;;;;;;5134622;27;20426;-25
2023/06/30 11:36:13;;;;;;;5.40;1.02;;;23.30;1.00;;;;;;5134930;27;20400;-26
2023/06/30 11:38:46;;;;;;;2.72;0.85;;;22.50;1.00;;;;;;5134671;27;20481;-25
2023/06/30 11:41:18;;;;;;;;;;;21.50;1.00;;;;;;5135708;28;20035;-25
2023/06/30 11:43:55;;;;;;;2.97;0.98;;;20.80;1.00;;;;;;5116921;28;19919;-25
2023/06/30 11:46:21;;;;;;;7.80;1.40;;;20.70;1.00;;;;;;5135611;28;20039;-24
2023/06/30 11:48:50;;;;;;;4.97;1.52;;;21.00;26.80;;;;;;5133463;28;20049;-24
2023/06/30 11:51:17;;;;;;;2.83;1.13;;;21.40;1.00;;;;;;5131390;28;20039;-24
2023/06/30 11:53:46;;;;;;;2.85;0.80;;;21.80;1.00;;;;;;5131921;28;20400;-26
2023/06/30 11:56:11;;;;;;;3.00;1.48;;;22.10;1.00;;;;;;5134337;28;20051;-25
2023/06/30 11:58:42;;;;;;;5.80;1.40;;;22.50;1.00;;;;;;5134409;28;20088;-25
2023/06/30 12:01:08;;;;;;;3.30;0.93;;;22.00;1.00;;;;;;5116874;28;20063;-24
2023/06/30 12:03:34;;;;;;;6.95;1.20;;;21.90;1.00;;;;;;5117097;28;20437;-25
2023/06/30 12:06:01;;;;;;;2.40;1.10;;;22.00;1.00;;;;;;5082628;28;20100;-25
2023/06/30 12:08:30;;;;;;;2.55;1.15;;;21.80;1.00;;;;;;5134980;28;20083;-25
2023/06/30 12:10:56;;;;;;;3.45;1.23;;;22.00;1.00;;;;;;5135204;28;20047;-25
2023/06/30 12:13:27;;;;;;;3.30;1.15;;;22.40;1.00;;;;;;5135818;27;20456;-25
2023/06/30 12:15:57;;;;;;;3.90;0.95;;;22.90;1.00;;;;;;5138788;27;20393;-25
2023/06/30 12:18:37;;;;;;;1.55;0.68;;;23.10;1.00;;;;;;5120074;27;20074;-25
2023/06/30 12:21:10;;;;;;;2.90;0.90;;;23.00;1.00;;;;;;5138879;27;20046;-25
2023/06/30 12:23:43;;;;;;;5.70;1.38;;;23.10;1.00;;;;;;5138229;27;20043;-24
2023/06/30 12:26:11;;;;;;;4.53;1.63;;;23.50;1.00;;;;;;5119920;27;20397;-25
2023/06/30 12:28:38;;;;;;;3.97;1.05;;;23.80;1.00;;;;;;5103081;27;20054;-25
2023/06/30 12:31:03;;;;;;;4.22;1.17;;;23.70;1.00;;;;;;5137920;27;20065;-25
2023/06/30 12:33:29;;;;;;;7.70;1.58;;;24.00;1.00;;;;;;5119671;27;20039;-26
2023/06/30 12:35:55;;;;;;;4.75;1.15;;;23.70;1.00;;;;;;5102972;27;20035;-26
2023/06/30 12:38:20;;;;;;;6.95;1.98;;;23.40;1.00;;;;;;5137965;27;20384;-26
2023/06/30 12:40:46;;;;;;;3.25;1.25;;;23.50;1.00;;;;;;5102827;27;20089;-27
2023/06/30 12:43:12;;;;;;;6.07;1.25;;;23.60;1.00;;;;;;5137934;27;20032;-26
2023/06/30 12:45:38;;;;;;;4.90;1.63;;;23.10;1.00;;;;;;5137803;27;20043;-26